createdAt,value
2023-04-20T00:04:01.218Z,7.07
2023-04-20T00:08:04.325Z,6.93
2023-04-20T00:12:07.490Z,7.03
2023-04-20T00:16:11.720Z,7.04
2023-04-20T00:20:15.408Z,7.00
2023-04-20T00:24:18.400Z,6.83
2023-04-20T00:28:21.261Z,6.87
2023-04-20T00:32:25.830Z,6.92
2023-04-20T00:36:28.718Z,6.85
2023-04-20T00:40:31.656Z,6.74
2023-04-20T00:44:34.800Z,6.69
2023-04-20T00:48:39.163Z,6.58
2023-04-20T00:52:42.146Z,6.50
2023-04-20T00:56:45.441Z,6.53
2023-04-20T01:00:48.475Z,6.48
2023-04-20T01:04:55.654Z,6.29
2023-04-20T01:08:58.553Z,6.28
2023-04-20T01:13:01.495Z,6.28
2023-04-20T01:17:06.284Z,6.29
2023-04-20T01:21:10.674Z,6.40
2023-04-20T01:25:15.223Z,6.37
2023-04-20T01:29:18.329Z,6.34
2023-04-20T01:33:21.374Z,6.24
2023-04-20T01:37:27.354Z,6.10
2023-04-20T01:41:31.765Z,5.99
2023-04-20T01:45:34.629Z,5.94
2023-04-20T01:49:37.526Z,5.86
2023-04-20T01:53:40.489Z,5.75
2023-04-20T01:57:45.819Z,5.68
2023-04-20T02:01:48.882Z,6.11
2023-04-20T02:05:51.966Z,6.14
2023-04-20T02:09:55.083Z,6.19
2023-04-20T02:13:59.452Z,6.21
2023-04-20T02:18:03.688Z,6.53
2023-04-20T02:22:07.369Z,6.58
2023-04-20T02:26:10.240Z,6.65
2023-04-20T02:30:17.716Z,6.77
2023-04-20T02:34:20.602Z,6.81
2023-04-20T02:38:23.743Z,6.91
2023-04-20T02:42:26.799Z,6.86
2023-04-20T02:46:32.937Z,6.88
2023-04-20T02:50:38.021Z,6.88
2023-04-20T02:55:08.160Z,6.82
2023-04-20T02:59:11.369Z,6.88
2023-04-20T03:03:21.444Z,6.89
2023-04-20T03:07:24.665Z,6.81
2023-04-20T03:11:28.556Z,6.80
2023-04-20T03:15:33.468Z,6.83
2023-04-20T03:19:49.197Z,6.85
2023-04-20T03:23:52.178Z,6.91
2023-04-20T03:27:55.320Z,6.89
2023-04-20T03:31:58.553Z,6.88
2023-04-20T03:36:03.342Z,6.86
2023-04-20T03:40:07.141Z,6.87
2023-04-20T03:44:10.201Z,6.81
2023-04-20T03:48:13.263Z,6.82
2023-04-20T03:52:17.582Z,6.79
2023-04-20T03:56:20.710Z,6.75
2023-04-20T04:00:25.060Z,6.70
2023-04-20T04:04:36.217Z,6.68
2023-04-20T04:08:40.760Z,6.68
2023-04-20T04:12:44.077Z,6.69
2023-04-20T04:16:47.490Z,6.66
2023-04-20T04:20:50.385Z,6.70
2023-04-20T04:24:54.946Z,6.75
2023-04-20T04:28:58.276Z,6.65
2023-04-20T04:33:04.864Z,6.70
2023-04-20T04:37:10.804Z,6.69
2023-04-20T04:41:25.679Z,6.69
2023-04-20T04:45:31.927Z,6.73
2023-04-20T04:49:35.830Z,6.66
2023-04-20T04:53:38.788Z,6.63
2023-04-20T04:57:43.140Z,6.66
2023-04-20T05:01:46.159Z,6.61
2023-04-20T05:05:49.234Z,6.59
2023-04-20T05:09:52.141Z,6.58
2023-04-20T05:13:56.562Z,6.56
2023-04-20T05:17:59.617Z,6.68
2023-04-20T05:22:03.736Z,6.69
2023-04-20T05:26:06.924Z,6.74
2023-04-20T05:30:20.656Z,6.82
2023-04-20T05:34:24.659Z,6.83
2023-04-20T05:38:27.808Z,6.90
2023-04-20T05:42:30.846Z,6.93
2023-04-20T05:46:35.132Z,7.00
2023-04-20T05:50:38.192Z,7.09
2023-04-20T05:54:41.078Z,6.91
2023-04-20T05:58:44.302Z,6.98
2023-04-20T06:02:48.717Z,7.11
2023-04-20T06:06:52.141Z,7.18
2023-04-20T06:10:56.077Z,7.30
2023-04-20T06:14:59.168Z,7.38
2023-04-20T06:19:03.517Z,7.23
2023-04-20T06:23:06.627Z,7.16
2023-04-20T06:27:09.629Z,7.25
2023-04-20T06:31:12.852Z,7.27
2023-04-20T06:35:17.298Z,7.64
2023-04-20T06:39:20.469Z,7.94
2023-04-20T06:43:23.397Z,7.90
2023-04-20T06:47:31.432Z,8.20
2023-04-20T06:51:35.990Z,8.14
2023-04-20T06:55:38.883Z,8.03
2023-04-20T06:59:41.972Z,8.07
2023-04-20T07:03:47.129Z,8.02
2023-04-20T07:07:51.558Z,8.30
2023-04-20T07:11:56.357Z,7.97
2023-04-20T07:15:59.423Z,8.07
2023-04-20T07:20:08.036Z,8.09
2023-04-20T07:24:12.712Z,7.99
2023-04-20T07:28:15.617Z,7.86
2023-04-20T07:32:18.645Z,7.93
2023-04-20T07:36:22.652Z,7.81
2023-04-20T07:40:27.114Z,7.75
2023-04-20T07:44:30.370Z,7.65
2023-04-20T07:48:34.838Z,7.74
2023-04-20T07:52:37.719Z,7.69
2023-04-20T07:56:41.992Z,7.69
2023-04-20T08:00:46.629Z,7.94
2023-04-20T08:04:50.251Z,8.23
2023-04-20T08:08:53.415Z,8.35
2023-04-20T08:12:57.786Z,8.06
2023-04-20T08:17:00.895Z,8.14
2023-04-20T08:21:03.970Z,7.93
2023-04-20T08:25:07.433Z,7.84
2023-04-20T08:29:11.839Z,7.74
2023-04-20T08:33:14.840Z,7.62
2023-04-20T08:37:17.868Z,7.88
2023-04-20T08:41:21.326Z,7.91
2023-04-20T08:45:25.715Z,7.85
2023-04-20T08:49:29.456Z,7.88
2023-04-20T08:53:32.553Z,8.25
2023-04-20T08:57:35.573Z,8.09
2023-04-20T09:01:41.663Z,8.09
2023-04-20T09:05:46.751Z,8.27
2023-04-20T09:09:56.590Z,8.35
2023-04-20T09:14:00.498Z,8.33
2023-04-20T09:18:15.135Z,8.22
2023-04-20T09:22:18.110Z,8.53
2023-04-20T09:26:21.085Z,8.11
2023-04-20T09:30:24.142Z,8.30
2023-04-20T09:34:28.381Z,8.43
2023-04-20T09:38:31.965Z,8.60
2023-04-20T09:42:37.844Z,8.32
2023-04-20T09:46:41.636Z,8.39
2023-04-20T09:50:49.775Z,8.40
2023-04-20T09:54:54.276Z,8.39
2023-04-20T09:58:57.672Z,8.01
2023-04-20T10:03:00.951Z,7.90
2023-04-20T10:07:06.414Z,7.74
2023-04-20T10:11:09.473Z,7.42
2023-04-20T10:15:12.462Z,7.09
2023-04-20T10:19:15.677Z,7.25
2023-04-20T10:23:20.168Z,7.37
2023-04-20T10:27:23.711Z,7.25
2023-04-20T10:31:36.320Z,7.64
2023-04-20T10:35:45.702Z,7.97
2023-04-20T10:39:50.341Z,8.55
2023-04-20T10:43:53.529Z,8.75
2023-04-20T10:47:56.496Z,9.89
2023-04-20T10:51:59.707Z,10.90
2023-04-20T10:56:04.042Z,10.71
2023-04-20T11:00:16.521Z,11.00
2023-04-20T11:04:19.594Z,10.31
2023-04-20T11:08:22.660Z,9.94
2023-04-20T11:12:27.013Z,9.92
2023-04-20T11:16:44.270Z,9.81
2023-04-20T11:20:53.198Z,9.57
2023-04-20T11:25:05.548Z,9.18
2023-04-20T11:29:10.121Z,8.69
2023-04-20T11:33:14.019Z,8.11
2023-04-20T11:37:17.940Z,7.27
2023-04-20T11:41:21.833Z,7.23
2023-04-20T11:45:26.207Z,8.40
2023-04-20T11:49:29.986Z,8.99
2023-04-20T11:53:33.026Z,9.76
2023-04-20T11:57:36.207Z,11.40
2023-04-20T12:01:40.898Z,11.08
2023-04-20T12:05:44.241Z,10.52
2023-04-20T12:09:47.314Z,9.59
2023-04-20T12:13:50.504Z,8.75
2023-04-20T12:17:54.844Z,8.78
2023-04-20T12:21:58.059Z,8.60
2023-04-20T12:26:01.332Z,8.82
2023-04-20T12:30:04.934Z,8.92
2023-04-20T12:34:09.400Z,9.78
2023-04-20T12:38:14.526Z,11.27
2023-04-20T12:42:18.012Z,12.37
2023-04-20T12:46:21.164Z,12.94
2023-04-20T12:50:25.501Z,13.38
2023-04-20T12:54:28.446Z,12.55
2023-04-20T12:58:31.780Z,12.04
2023-04-20T13:02:34.767Z,10.93
2023-04-20T13:06:39.185Z,10.13
2023-04-20T13:10:42.918Z,9.53
2023-04-20T13:14:45.888Z,9.79
2023-04-20T13:18:48.805Z,10.05
2023-04-20T13:22:57.791Z,10.04
2023-04-20T13:27:01.829Z,11.47
2023-04-20T13:31:04.833Z,13.25
2023-04-20T13:35:08.473Z,14.06
2023-04-20T13:39:13.066Z,14.64
2023-04-20T13:43:16.166Z,16.08
2023-04-20T13:47:19.978Z,14.98
2023-04-20T13:51:23.097Z,14.10
2023-04-20T13:55:27.584Z,14.41
2023-04-20T13:59:30.621Z,15.47
2023-04-20T14:03:33.593Z,14.61
2023-04-20T14:07:36.717Z,15.08
2023-04-20T14:11:41.020Z,14.37
2023-04-20T14:15:44.069Z,13.31
2023-04-20T14:19:47.781Z,13.90
2023-04-20T14:23:53.548Z,13.33
2023-04-20T14:27:57.984Z,15.44
2023-04-20T14:32:00.899Z,15.67
2023-04-20T14:36:03.938Z,15.42
2023-04-20T14:40:08.292Z,15.72
2023-04-20T14:44:12.655Z,13.72
2023-04-20T14:48:15.646Z,12.81
2023-04-20T14:52:18.591Z,12.61
2023-04-20T14:56:21.746Z,13.90
2023-04-20T15:00:28.180Z,15.53
2023-04-20T15:04:31.401Z,16.51
2023-04-20T15:08:34.778Z,16.19
2023-04-20T15:12:37.650Z,13.81
2023-04-20T15:16:41.982Z,12.77
2023-04-20T15:20:45.251Z,12.20
2023-04-20T15:24:48.535Z,12.55
2023-04-20T15:28:52.314Z,14.10
2023-04-20T15:33:04.143Z,15.48
2023-04-20T15:37:08.020Z,16.50
2023-04-20T15:41:11.178Z,14.60
2023-04-20T15:45:14.078Z,13.30
2023-04-20T15:49:20.210Z,12.53
2023-04-20T15:53:24.289Z,12.33
2023-04-20T15:57:27.392Z,12.19
2023-04-20T16:01:30.486Z,12.25
2023-04-20T16:05:35.320Z,12.10
2023-04-20T16:09:56.854Z,13.01
2023-04-20T16:13:59.849Z,13.72
2023-04-20T16:18:04.942Z,14.45
2023-04-20T16:22:09.662Z,15.26
2023-04-20T16:26:12.709Z,14.44
2023-04-20T16:30:15.752Z,15.70
2023-04-20T16:34:18.900Z,14.94
2023-04-20T16:38:23.896Z,14.63
2023-04-20T16:42:26.878Z,13.81
2023-04-20T16:46:29.936Z,12.95
2023-04-20T16:50:33.116Z,14.14
2023-04-20T16:54:37.452Z,14.09
2023-04-20T16:58:40.667Z,13.47
2023-04-20T17:02:45.236Z,12.61
2023-04-20T17:06:48.505Z,11.99
2023-04-20T17:10:53.074Z,11.77
2023-04-20T17:14:59.105Z,13.07
2023-04-20T17:19:02.231Z,12.88
2023-04-20T17:23:05.213Z,13.31
2023-04-20T17:27:09.628Z,13.54
2023-04-20T17:31:12.735Z,13.29
2023-04-20T17:35:15.806Z,12.91
2023-04-20T17:39:20.366Z,12.66
2023-04-20T17:43:24.800Z,12.52
2023-04-20T17:47:28.593Z,12.27
2023-04-20T17:51:31.677Z,11.99
2023-04-20T17:55:35.157Z,11.95
2023-04-20T17:59:41.441Z,12.05
2023-04-20T18:03:44.917Z,11.83
2023-04-20T18:07:48.996Z,11.49
2023-04-20T18:11:52.176Z,11.46
2023-04-20T18:16:15.291Z,11.28
2023-04-20T18:20:19.254Z,11.23
2023-04-20T18:24:22.532Z,11.09
2023-04-20T18:28:25.512Z,11.08
2023-04-20T18:32:31.042Z,11.01
2023-04-20T18:36:34.246Z,10.96
2023-04-20T18:40:37.208Z,10.81
2023-04-20T18:44:40.716Z,10.23
2023-04-20T18:48:46.344Z,9.92
2023-04-20T18:52:49.337Z,9.77
2023-04-20T18:56:54.783Z,9.67
2023-04-20T19:00:57.893Z,9.57
2023-04-20T19:05:02.269Z,9.40
2023-04-20T19:09:07.894Z,9.20
2023-04-20T19:13:11.161Z,9.16
2023-04-20T19:17:14.177Z,9.11
2023-04-20T19:21:19.700Z,9.07
2023-04-20T19:25:24.626Z,9.19
2023-04-20T19:29:27.662Z,9.07
2023-04-20T19:33:30.670Z,9.11
2023-04-20T19:37:35.082Z,9.01
2023-04-20T19:41:38.060Z,8.99
2023-04-20T19:45:41.544Z,9.00
2023-04-20T19:49:44.552Z,9.02
2023-04-20T19:53:48.819Z,9.07
2023-04-20T19:57:51.834Z,9.04
2023-04-20T20:01:54.828Z,9.00
2023-04-20T20:05:57.863Z,8.93
2023-04-20T20:10:02.468Z,8.95
2023-04-20T20:14:05.340Z,8.91
2023-04-20T20:18:10.723Z,8.85
2023-04-20T20:22:13.823Z,8.86
2023-04-20T20:26:18.261Z,8.71
2023-04-20T20:30:21.269Z,8.56
2023-04-20T20:34:24.208Z,8.44
2023-04-20T20:38:30.987Z,8.40
2023-04-20T20:42:35.239Z,8.30
2023-04-20T20:46:38.655Z,8.21
2023-04-20T20:50:41.847Z,8.16
2023-04-20T20:54:44.776Z,8.12
2023-04-20T20:58:49.244Z,8.03
2023-04-20T21:02:52.511Z,7.85
2023-04-20T21:06:55.710Z,7.92
2023-04-20T21:10:58.602Z,7.76
2023-04-20T21:15:02.923Z,7.70
2023-04-20T21:19:06.025Z,7.63
2023-04-20T21:23:09.915Z,7.59
2023-04-20T21:27:12.920Z,7.53
2023-04-20T21:31:17.200Z,7.50
2023-04-20T21:35:20.297Z,7.47
2023-04-20T21:39:23.582Z,7.47
2023-04-20T21:43:26.902Z,7.48
2023-04-20T21:47:31.232Z,7.45
2023-04-20T21:51:34.204Z,7.47
2023-04-20T21:55:37.168Z,7.45
2023-04-20T21:59:40.119Z,7.43
2023-04-20T22:03:44.824Z,7.39
2023-04-20T22:07:47.822Z,7.37
2023-04-20T22:11:50.955Z,7.37
2023-04-20T22:15:53.983Z,7.32
2023-04-20T22:19:58.407Z,7.32
2023-04-20T22:24:01.329Z,7.31
2023-04-20T22:28:04.994Z,7.31
2023-04-20T22:32:08.212Z,7.32
2023-04-20T22:36:12.721Z,7.26
2023-04-20T22:40:15.710Z,7.23
2023-04-20T22:44:18.554Z,7.24
2023-04-20T22:48:21.424Z,7.26
2023-04-20T22:52:25.745Z,7.27
2023-04-20T22:56:29.433Z,7.26
2023-04-20T23:00:32.413Z,7.27
2023-04-20T23:04:37.696Z,7.22
2023-04-20T23:08:41.980Z,7.21
2023-04-20T23:12:46.944Z,7.26
2023-04-20T23:16:50.138Z,7.19
2023-04-20T23:20:53.193Z,7.13
2023-04-20T23:24:57.945Z,7.17
2023-04-20T23:29:00.840Z,7.15
2023-04-20T23:33:03.872Z,7.15
2023-04-20T23:37:06.865Z,7.17
2023-04-20T23:41:11.811Z,7.10
2023-04-20T23:45:14.692Z,7.19
2023-04-20T23:49:17.845Z,7.12
2023-04-20T23:53:21.079Z,7.13
2023-04-20T23:57:25.351Z,7.13
